Accueil
METAR-TAF:

METAR-TAF

Aéroports :

Solenzara, France

Base aérienne 126 Solenzara

latitude: 41-55N, longitude: 009-24E, altitude: 8 m

Observation

Le bulletin a été fait il y a 22 minutes, à 08:00 UTC
Vent 3 kt de ouest/sud-ouest, variant entre sud/sud-ouest et ouest
Température 14°C
Humidité 67%
Pression 1016 hPa
Visibilité 10 km ou plus
pas de nuages en-dessous de 1500 mètres et pas de cumulonimbus.

METAR: LFKS 180800Z AUTO 25003KT 200V280 CAVOK 14/08 Q1016

Heure: 09:22 (08:22 UTC)

Prévision

Le bulletin a été fait il y a 18 heures et 22 minutes, à 14:00 UTC
Prévision valable du 17 à 15 UTC au 18 à 15 UTC
Vent 10 kt de sud/sud-est
Visibilité 10 km ou plus
pas de nuages en-dessous de 1500 mètres et pas de cumulonimbus.
Evoluant progressivement
du 17 à 17 UTC au 17 à 19 UTC
Vent 5 kt de ouest

TAF: LFKS 171400Z 1715/1815 16010KT CAVOK BECMG 1717/1719 28005KT

Observations et prévisions météorologiques de plus de 4000 aéroports (messages METAR et TAF).

Les stations disponibles sont représentées par des disques jaunes et rouges sur la carte.

Passer la souris dessus pour voir le nom de la station.

Cliquer dessus pour voir les observations et prévisions météorologiques.

Pour changer de carte: cliquez sur les boutons verts avec une croix noire pour zoomer, sur le bouton vert avec un tiret pour effectuer un zoom arrière, ou sur les flèches vertes pour les cartes adjacentes.


METAR-TAF: